createdAt,value
2022-12-15T00:01:25.728Z,47.63
2022-12-15T00:04:11.014Z,41.42
2022-12-15T00:06:56.326Z,41.25
2022-12-15T00:09:41.002Z,40.65
2022-12-15T00:12:25.867Z,37.75
2022-12-15T00:15:10.644Z,43.58
2022-12-15T00:17:55.364Z,40.72
2022-12-15T00:20:40.118Z,39.72
2022-12-15T00:23:27.153Z,35.10
2022-12-15T00:26:12.199Z,41.25
2022-12-15T00:28:56.951Z,42.33
2022-12-15T00:31:42.187Z,38.13
2022-12-15T00:34:27.480Z,36.83
2022-12-15T00:37:12.801Z,37.28
2022-12-15T00:39:40.240Z,40.67
2022-12-15T00:42:08.056Z,43.38
2022-12-15T00:44:34.494Z,50.45
2022-12-15T00:47:01.172Z,54.40
2022-12-15T00:49:48.128Z,79.70
2022-12-15T00:52:34.440Z,67.05
2022-12-15T00:55:19.056Z,61.83
2022-12-15T00:58:04.288Z,57.67
2022-12-15T01:00:49.555Z,69.18
2022-12-15T01:03:42.033Z,69.72
2022-12-15T01:06:33.161Z,78.75
2022-12-15T01:12:04.141Z,58.60
2022-12-15T01:14:50.482Z,67.68
2022-12-15T01:17:36.265Z,84.78
2022-12-15T01:20:20.045Z,88.40
2022-12-15T01:22:54.690Z,89.72
2022-12-15T01:25:24.139Z,98.10
2022-12-15T01:27:51.156Z,94.88
2022-12-15T01:30:23.506Z,99.13
2022-12-15T01:32:50.174Z,102.75
2022-12-15T01:35:17.605Z,115.45
2022-12-15T01:37:44.866Z,114.55
2022-12-15T01:40:36.960Z,110.80
2022-12-15T01:43:03.401Z,88.03
2022-12-15T01:45:29.718Z,97.13
2022-12-15T01:48:09.278Z,83.35
2022-12-15T01:50:42.190Z,105.28
2022-12-15T01:53:10.651Z,112.97
2022-12-15T01:55:38.939Z,122.53
2022-12-15T01:58:08.921Z,131.68
2022-12-15T02:00:35.825Z,72.80
2022-12-15T02:03:04.417Z,74.35
2022-12-15T02:05:31.820Z,82.75
2022-12-15T02:08:00.517Z,70.20
2022-12-15T02:10:34.335Z,70.90
2022-12-15T02:13:28.713Z,70.90
2022-12-15T02:16:24.336Z,63.55
2022-12-15T02:19:17.783Z,66.88
2022-12-15T02:21:56.548Z,63.35
2022-12-15T02:24:25.605Z,66.38
2022-12-15T02:26:55.033Z,69.65
2022-12-15T02:29:49.254Z,65.93
2022-12-15T02:32:26.437Z,60.92
2022-12-15T02:35:01.714Z,60.45
2022-12-15T02:37:39.721Z,66.03
2022-12-15T02:40:10.063Z,60.22
2022-12-15T02:42:42.468Z,60.33
2022-12-15T02:45:13.991Z,63.15
2022-12-15T02:48:11.752Z,59.47
2022-12-15T02:51:20.397Z,59.70
2022-12-15T02:54:06.650Z,50.47
2022-12-15T02:56:50.095Z,44.78
2022-12-15T02:59:37.784Z,52.50
2022-12-15T03:02:06.504Z,47.50
2022-12-15T03:04:33.927Z,45.40
2022-12-15T03:07:03.853Z,43.42
2022-12-15T03:09:33.287Z,46.67
2022-12-15T03:11:59.905Z,41.22
2022-12-15T03:14:26.871Z,51.03
2022-12-15T03:16:54.677Z,44.60
2022-12-15T03:19:21.283Z,48.17
2022-12-15T03:21:47.700Z,49.67
2022-12-15T03:24:14.103Z,57.20
2022-12-15T03:26:40.480Z,50.65
2022-12-15T03:29:07.214Z,60.05
2022-12-15T03:31:33.738Z,63.47
2022-12-15T03:34:00.155Z,52.70
2022-12-15T03:36:26.608Z,58.83
2022-12-15T03:38:53.057Z,51.22
2022-12-15T03:41:20.029Z,55.65
2022-12-15T03:43:46.539Z,57.95
2022-12-15T03:46:16.317Z,57.75
2022-12-15T03:48:42.709Z,63.60
2022-12-15T03:51:09.295Z,59.92
2022-12-15T03:53:35.762Z,54.33
2022-12-15T03:56:02.188Z,56.38
2022-12-15T03:58:28.592Z,56.42
2022-12-15T04:00:55.470Z,46.85
2022-12-15T04:03:22.016Z,50.05
2022-12-15T04:05:48.712Z,44.53
2022-12-15T04:08:15.241Z,51.50
2022-12-15T04:10:43.481Z,52.03
2022-12-15T04:13:11.540Z,45.33
2022-12-15T04:15:39.813Z,49.17
2022-12-15T04:18:09.843Z,46.75
2022-12-15T04:20:37.064Z,52.07
2022-12-15T04:23:03.928Z,52.72
2022-12-15T04:25:48.943Z,49.22
2022-12-15T04:28:33.645Z,54.42
2022-12-15T04:31:27.520Z,58.53
2022-12-15T04:34:27.071Z,55.95
2022-12-15T04:37:12.839Z,63.75
2022-12-15T04:40:01.224Z,60.15
2022-12-15T04:42:47.083Z,62.72
2022-12-15T04:45:33.207Z,55.33
2022-12-15T04:48:18.316Z,57.30
2022-12-15T04:51:03.015Z,55.08
2022-12-15T04:53:47.680Z,55.03
2022-12-15T04:56:33.999Z,54.75
2022-12-15T04:59:19.202Z,61.13
2022-12-15T05:02:04.453Z,52.83
2022-12-15T05:04:49.698Z,58.47
2022-12-15T05:07:34.891Z,51.05
2022-12-15T05:10:20.116Z,56.83
2022-12-15T05:13:04.883Z,59.78
2022-12-15T05:15:51.280Z,61.97
2022-12-15T05:18:36.363Z,55.63
2022-12-15T05:21:21.633Z,61.85
2022-12-15T05:24:06.758Z,56.70
2022-12-15T05:26:53.258Z,64.90
2022-12-15T05:29:39.399Z,67.70
2022-12-15T05:32:07.119Z,64.28
2022-12-15T05:34:35.556Z,63.05
2022-12-15T05:37:03.707Z,57.70
2022-12-15T05:39:30.190Z,57.85
2022-12-15T05:41:57.285Z,57.75
2022-12-15T05:44:26.785Z,53.22
2022-12-15T05:46:53.307Z,61.08
2022-12-15T05:49:20.489Z,64.68
2022-12-15T05:51:47.993Z,71.82
2022-12-15T05:54:16.852Z,68.72
2022-12-15T05:56:43.541Z,62.45
2022-12-15T05:59:10.315Z,63.13
2022-12-15T06:01:36.773Z,58.05
2022-12-15T06:04:04.254Z,60.70
2022-12-15T06:06:30.657Z,54.40
2022-12-15T06:08:57.097Z,54.22
2022-12-15T06:11:23.797Z,57.55
2022-12-15T06:13:50.337Z,64.82
2022-12-15T06:16:21.966Z,66.93
2022-12-15T06:18:52.470Z,72.20
2022-12-15T06:21:25.912Z,60.42
2022-12-15T06:23:53.196Z,59.03
2022-12-15T06:26:22.622Z,54.85
2022-12-15T06:28:50.040Z,64.53
2022-12-15T06:31:19.190Z,65.78
2022-12-15T06:33:45.697Z,69.68
2022-12-15T06:36:14.612Z,68.63
2022-12-15T06:38:44.191Z,87.47
2022-12-15T06:41:13.361Z,86.97
2022-12-15T06:43:40.360Z,81.65
2022-12-15T06:46:07.570Z,82.82
2022-12-15T06:48:34.138Z,78.57
2022-12-15T06:51:05.342Z,71.50
2022-12-15T06:53:32.924Z,67.32
2022-12-15T06:56:04.052Z,61.95
2022-12-15T06:58:30.511Z,59.28
2022-12-15T07:00:57.298Z,67.22
2022-12-15T07:03:24.528Z,70.25
2022-12-15T07:06:11.141Z,69.15
2022-12-15T07:08:41.343Z,65.63
2022-12-15T07:11:11.429Z,65.43
2022-12-15T07:13:39.203Z,73.57
2022-12-15T07:16:07.285Z,64.47
2022-12-15T07:18:33.916Z,64.70
2022-12-15T07:21:05.811Z,67.35
2022-12-15T07:23:53.653Z,65.68
2022-12-15T07:26:20.842Z,60.50
2022-12-15T07:28:47.759Z,59.97
2022-12-15T07:31:15.446Z,63.00
2022-12-15T07:33:42.401Z,57.83
2022-12-15T07:36:09.172Z,56.58
2022-12-15T07:38:35.828Z,62.65
2022-12-15T07:41:04.956Z,67.88
2022-12-15T07:43:32.659Z,61.30
2022-12-15T07:45:59.630Z,61.28
2022-12-15T07:48:27.222Z,58.45
2022-12-15T07:51:05.104Z,63.50
2022-12-15T07:53:36.104Z,62.63
2022-12-15T07:56:09.073Z,59.58
2022-12-15T07:58:36.747Z,65.78
2022-12-15T08:01:05.987Z,59.83
2022-12-15T08:03:33.469Z,64.32
2022-12-15T08:06:05.464Z,52.75
2022-12-15T08:08:33.272Z,64.03
2022-12-15T08:11:04.433Z,79.25
2022-12-15T08:14:01.442Z,86.28
2022-12-15T08:16:17.271Z,71.63
2022-12-15T08:18:43.743Z,69.65
2022-12-15T08:21:10.824Z,59.90
2022-12-15T08:23:38.945Z,64.05
2022-12-15T08:26:12.297Z,60.42
2022-12-15T08:28:40.244Z,63.80
2022-12-15T08:31:12.391Z,71.43
2022-12-15T08:33:39.729Z,66.88
2022-12-15T08:36:09.201Z,68.28
2022-12-15T08:38:38.519Z,65.85
2022-12-15T08:41:17.198Z,69.60
2022-12-15T08:43:48.625Z,66.93
2022-12-15T08:46:17.572Z,70.18
2022-12-15T08:48:44.509Z,73.85
2022-12-15T08:51:11.909Z,74.25
2022-12-15T08:53:38.686Z,63.83
2022-12-15T08:56:08.085Z,67.18
2022-12-15T08:58:34.805Z,66.47
2022-12-15T09:01:06.897Z,75.90
2022-12-15T09:03:35.480Z,71.80
2022-12-15T09:06:06.417Z,68.18
2022-12-15T09:08:33.608Z,70.35
2022-12-15T09:11:01.161Z,72.97
2022-12-15T09:13:28.635Z,69.68
2022-12-15T09:16:09.223Z,74.07
2022-12-15T09:18:36.594Z,67.07
2022-12-15T09:21:06.127Z,66.43
2022-12-15T09:23:33.642Z,67.40
2022-12-15T09:26:05.412Z,70.78
2022-12-15T09:28:32.150Z,67.18
2022-12-15T09:31:07.074Z,66.90
2022-12-15T09:33:34.319Z,72.03
2022-12-15T09:36:01.361Z,65.63
2022-12-15T09:38:27.907Z,66.35
2022-12-15T09:40:54.361Z,61.67
2022-12-15T09:43:46.160Z,60.72
2022-12-15T09:46:38.428Z,64.40
2022-12-15T09:49:25.199Z,67.25
2022-12-15T09:52:10.370Z,68.32
2022-12-15T09:54:38.679Z,60.40
2022-12-15T09:57:11.544Z,66.20
2022-12-15T10:00:05.246Z,65.03
2022-12-15T10:02:58.200Z,70.13
2022-12-15T10:05:57.611Z,65.30
2022-12-15T10:08:24.185Z,61.20
2022-12-15T10:10:58.595Z,63.13
2022-12-15T10:13:53.488Z,66.15
2022-12-15T10:16:28.043Z,63.35
2022-12-15T10:19:07.386Z,65.45
2022-12-15T10:21:34.698Z,61.95
2022-12-15T10:24:31.575Z,66.35
2022-12-15T10:27:13.722Z,65.60
2022-12-15T10:29:50.830Z,57.70
2022-12-15T10:32:31.797Z,65.03
2022-12-15T10:34:58.266Z,59.42
2022-12-15T10:37:24.756Z,67.20
2022-12-15T10:39:51.422Z,62.60
2022-12-15T10:42:23.780Z,66.72
2022-12-15T10:44:55.519Z,66.18
2022-12-15T10:47:27.694Z,60.50
2022-12-15T10:49:56.201Z,59.40
2022-12-15T10:52:36.585Z,52.65
2022-12-15T10:55:36.262Z,65.33
2022-12-15T10:58:05.457Z,62.25
2022-12-15T11:00:33.236Z,61.85
2022-12-15T11:03:00.118Z,50.33
2022-12-15T11:05:27.350Z,60.05
2022-12-15T11:07:56.248Z,57.60
2022-12-15T11:10:51.638Z,56.22
2022-12-15T11:13:20.692Z,62.97
2022-12-15T11:15:51.806Z,58.92
2022-12-15T11:21:09.897Z,53.25
2022-12-15T11:23:55.194Z,58.22
2022-12-15T11:26:46.858Z,61.35
2022-12-15T11:29:21.698Z,56.83
2022-12-15T11:31:48.929Z,62.78
2022-12-15T11:34:18.306Z,56.20
2022-12-15T11:37:10.688Z,64.35
2022-12-15T11:39:41.869Z,65.47
2022-12-15T11:42:20.163Z,55.63
2022-12-15T11:45:01.995Z,54.25
2022-12-15T11:47:44.863Z,53.22
2022-12-15T11:50:53.490Z,60.67
2022-12-15T11:53:32.074Z,57.67
2022-12-15T11:56:18.024Z,55.80
2022-12-15T11:59:09.066Z,59.13
2022-12-15T12:02:00.712Z,60.30
2022-12-15T12:05:00.324Z,63.72
2022-12-15T12:07:52.988Z,60.67
2022-12-15T12:10:25.444Z,57.10
2022-12-15T12:13:09.796Z,59.33
2022-12-15T12:15:45.423Z,62.20
2022-12-15T12:18:16.193Z,57.65
2022-12-15T12:20:52.156Z,56.05
2022-12-15T12:23:42.084Z,59.63
2022-12-15T12:26:19.390Z,55.67
2022-12-15T12:29:28.140Z,57.28
2022-12-15T12:32:03.832Z,57.47
2022-12-15T12:34:39.913Z,51.90
2022-12-15T12:37:21.622Z,54.78
2022-12-15T12:39:51.880Z,61.47
2022-12-15T12:42:38.548Z,62.58
2022-12-15T12:45:05.646Z,65.95
2022-12-15T12:47:37.002Z,58.65
2022-12-15T12:52:55.472Z,56.72
2022-12-15T12:55:42.182Z,53.42
2022-12-15T12:58:45.364Z,56.10
2022-12-15T13:01:20.016Z,51.38
2022-12-15T13:04:06.487Z,60.92
2022-12-15T13:06:35.629Z,55.97
2022-12-15T13:09:22.752Z,50.97
2022-12-15T13:11:49.345Z,54.58
2022-12-15T13:14:40.005Z,47.00
2022-12-15T13:17:26.576Z,48.08
2022-12-15T13:19:53.937Z,61.97
2022-12-15T13:22:27.237Z,60.97
2022-12-15T13:24:56.733Z,50.80
2022-12-15T13:27:23.837Z,58.90
2022-12-15T13:30:01.766Z,48.45
2022-12-15T13:32:37.243Z,55.05
2022-12-15T13:35:31.411Z,49.85
2022-12-15T13:38:02.853Z,50.97
2022-12-15T13:40:50.433Z,58.13
2022-12-15T13:43:26.389Z,50.50
2022-12-15T13:46:00.286Z,50.90
2022-12-15T13:48:31.337Z,52.55
2022-12-15T13:51:12.933Z,60.50
2022-12-15T13:53:51.452Z,52.70
2022-12-15T13:56:43.086Z,54.92
2022-12-15T13:59:20.250Z,56.67
2022-12-15T14:01:51.974Z,47.95
2022-12-15T14:04:19.589Z,52.42
2022-12-15T14:06:56.897Z,54.30
2022-12-15T14:09:40.911Z,48.38
2022-12-15T14:12:13.656Z,64.20
2022-12-15T14:14:47.298Z,56.00
2022-12-15T14:17:18.289Z,58.47
2022-12-15T14:19:51.189Z,69.38
2022-12-15T14:22:30.174Z,58.50
2022-12-15T14:25:29.237Z,66.10
2022-12-15T14:27:56.575Z,62.85
2022-12-15T14:30:29.204Z,58.03
2022-12-15T14:33:13.670Z,63.88
2022-12-15T14:35:49.293Z,59.03
2022-12-15T14:39:21.161Z,57.67
2022-12-15T14:41:49.160Z,55.08
2022-12-15T14:44:37.611Z,55.97
2022-12-15T14:47:27.387Z,57.78
2022-12-15T14:49:56.679Z,51.20
2022-12-15T14:52:34.854Z,50.05
2022-12-15T14:55:04.122Z,57.08
2022-12-15T14:57:44.596Z,50.65
2022-12-15T15:00:26.120Z,48.63
2022-12-15T15:03:34.192Z,43.28
2022-12-15T15:06:21.088Z,45.22
2022-12-15T15:08:50.297Z,47.30
2022-12-15T15:11:36.291Z,44.17
2022-12-15T15:14:08.085Z,55.42
2022-12-15T15:16:34.989Z,41.95
2022-12-15T15:19:04.370Z,42.58
2022-12-15T15:21:36.518Z,39.17
2022-12-15T15:24:12.174Z,45.33
2022-12-15T15:26:40.032Z,43.72
2022-12-15T15:29:43.093Z,47.08
2022-12-15T15:32:16.631Z,46.08
2022-12-15T15:34:44.944Z,42.15
2022-12-15T15:37:23.480Z,40.47
2022-12-15T15:39:51.457Z,44.92
2022-12-15T15:42:17.895Z,43.42
2022-12-15T15:44:44.965Z,44.53
2022-12-15T15:47:31.729Z,43.08
2022-12-15T15:49:59.866Z,44.20
2022-12-15T15:52:29.673Z,43.20
2022-12-15T15:54:56.245Z,59.42
2022-12-15T15:57:22.666Z,53.40
2022-12-15T15:59:49.235Z,48.45
2022-12-15T16:02:16.046Z,41.35
2022-12-15T16:04:43.764Z,49.53
2022-12-15T16:07:28.945Z,42.75
2022-12-15T16:09:56.691Z,38.90
2022-12-15T16:12:54.153Z,43.40
2022-12-15T16:15:23.507Z,41.50
2022-12-15T16:17:50.056Z,40.47
2022-12-15T16:20:18.602Z,44.42
2022-12-15T16:22:48.779Z,37.97
2022-12-15T16:25:19.250Z,51.75
2022-12-15T16:27:45.803Z,42.42
2022-12-15T16:30:18.361Z,43.75
2022-12-15T16:32:44.775Z,41.88
2022-12-15T16:35:12.476Z,52.95
2022-12-15T16:37:40.028Z,38.67
2022-12-15T16:40:14.852Z,41.53
2022-12-15T16:42:41.523Z,43.03
2022-12-15T16:45:19.122Z,46.85
2022-12-15T16:47:46.089Z,45.55
2022-12-15T16:50:15.066Z,41.22
2022-12-15T16:52:43.953Z,43.20
2022-12-15T16:55:19.715Z,39.10
2022-12-15T16:57:47.264Z,40.58
2022-12-15T17:00:19.741Z,41.42
2022-12-15T17:02:46.634Z,44.05
2022-12-15T17:05:13.494Z,44.38
2022-12-15T17:07:40.529Z,45.00
2022-12-15T17:10:07.764Z,40.45
2022-12-15T17:12:34.201Z,41.22
2022-12-15T17:15:02.410Z,42.97
2022-12-15T17:17:31.068Z,46.22
2022-12-15T17:20:27.828Z,43.85
2022-12-15T17:22:47.629Z,45.72
2022-12-15T17:25:17.494Z,44.97
2022-12-15T17:27:44.825Z,47.78
2022-12-15T17:30:14.446Z,50.33
2022-12-15T17:32:41.257Z,48.72
2022-12-15T17:35:08.055Z,47.97
2022-12-15T17:37:35.570Z,43.67
2022-12-15T17:40:03.167Z,47.03
2022-12-15T17:42:29.766Z,44.15
2022-12-15T17:44:56.260Z,40.88
2022-12-15T17:47:24.141Z,42.45
2022-12-15T17:49:50.583Z,44.13
2022-12-15T17:52:16.994Z,44.80
2022-12-15T17:54:43.710Z,42.75
2022-12-15T17:57:13.448Z,44.17
2022-12-15T17:59:39.906Z,44.92
2022-12-15T18:02:07.078Z,39.40
2022-12-15T18:04:33.639Z,40.60
2022-12-15T18:07:02.329Z,43.72
2022-12-15T18:09:29.572Z,46.00
2022-12-15T18:11:56.180Z,41.28
2022-12-15T18:14:22.903Z,48.00
2022-12-15T18:16:49.618Z,44.75
2022-12-15T18:19:16.249Z,45.80
2022-12-15T18:21:42.843Z,46.30
2022-12-15T18:24:19.184Z,42.92
2022-12-15T18:26:45.605Z,42.75
2022-12-15T18:29:14.227Z,45.80
2022-12-15T18:31:41.852Z,43.95
2022-12-15T18:34:13.450Z,44.53
2022-12-15T18:36:40.111Z,45.45
2022-12-15T18:39:23.452Z,44.63
2022-12-15T18:41:51.087Z,44.35
2022-12-15T18:44:25.250Z,54.15
2022-12-15T18:46:52.265Z,56.25
2022-12-15T18:49:19.274Z,53.38
2022-12-15T18:51:47.113Z,51.53
2022-12-15T18:54:25.265Z,57.70
2022-12-15T18:56:51.964Z,56.33
2022-12-15T18:59:18.979Z,47.85
2022-12-15T19:01:48.172Z,48.40
2022-12-15T19:04:15.483Z,62.35
2022-12-15T19:06:42.250Z,56.25
2022-12-15T19:09:20.147Z,53.80
2022-12-15T19:12:16.707Z,54.90
2022-12-15T19:14:44.641Z,53.72
2022-12-15T19:17:33.094Z,58.70
2022-12-15T19:20:18.548Z,60.97
2022-12-15T19:22:46.849Z,63.85
2022-12-15T19:25:25.527Z,59.00
2022-12-15T19:27:58.423Z,55.03
2022-12-15T19:30:31.015Z,56.20
2022-12-15T19:32:57.450Z,62.10
2022-12-15T19:35:24.854Z,54.20
2022-12-15T19:37:54.881Z,57.75
2022-12-15T19:40:27.287Z,57.65
2022-12-15T19:42:55.558Z,65.03
2022-12-15T19:45:25.066Z,63.03
2022-12-15T19:47:51.594Z,64.63
2022-12-15T19:50:21.559Z,59.35
2022-12-15T19:52:51.461Z,50.00
2022-12-15T19:55:23.547Z,58.30
2022-12-15T19:57:50.012Z,51.05
2022-12-15T20:00:21.645Z,58.78
2022-12-15T20:02:51.345Z,55.85
2022-12-15T20:05:19.302Z,55.22
2022-12-15T20:07:46.974Z,57.92
2022-12-15T20:10:32.799Z,55.05
2022-12-15T20:13:00.957Z,51.80
2022-12-15T20:15:27.751Z,57.40
2022-12-15T20:17:57.610Z,56.45
2022-12-15T20:20:27.072Z,53.50
2022-12-15T20:22:56.096Z,58.13
2022-12-15T20:25:29.514Z,55.17
2022-12-15T20:27:56.879Z,61.80
2022-12-15T20:30:26.735Z,52.40
2022-12-15T20:32:53.660Z,53.10
2022-12-15T20:35:22.678Z,56.45
2022-12-15T20:37:49.564Z,53.65
2022-12-15T20:40:25.242Z,51.58
2022-12-15T20:42:52.986Z,59.28
2022-12-15T20:45:22.109Z,54.08
2022-12-15T20:47:51.182Z,50.92
2022-12-15T20:50:23.812Z,55.10
2022-12-15T20:52:50.366Z,56.88
2022-12-15T20:55:18.915Z,51.97
2022-12-15T20:57:45.601Z,46.22
2022-12-15T21:00:17.788Z,51.83
2022-12-15T21:02:45.555Z,52.33
2022-12-15T21:05:17.687Z,56.88
2022-12-15T21:07:45.338Z,51.78
2022-12-15T21:10:13.921Z,52.72
2022-12-15T21:12:42.588Z,51.25
2022-12-15T21:15:16.382Z,51.30
2022-12-15T21:17:43.257Z,45.60
2022-12-15T21:20:11.181Z,53.17
2022-12-15T21:22:37.667Z,57.42
2022-12-15T21:25:04.611Z,49.75
2022-12-15T21:27:31.133Z,46.97
2022-12-15T21:29:57.548Z,44.15
2022-12-15T21:32:24.131Z,48.47
2022-12-15T21:34:51.864Z,46.92
2022-12-15T21:37:28.413Z,43.67
2022-12-15T21:39:56.090Z,42.97
2022-12-15T21:42:22.845Z,47.30
2022-12-15T21:44:49.247Z,48.00
2022-12-15T21:47:26.031Z,51.30
2022-12-15T21:49:52.740Z,53.75
2022-12-15T21:52:19.803Z,53.53
2022-12-15T21:54:46.289Z,46.95
2022-12-15T21:57:12.870Z,46.10
2022-12-15T21:59:39.607Z,47.60
2022-12-15T22:02:24.843Z,50.20
2022-12-15T22:04:51.885Z,48.95
2022-12-15T22:07:18.629Z,42.28
2022-12-15T22:09:45.074Z,43.90
2022-12-15T22:12:23.867Z,50.53
2022-12-15T22:14:50.436Z,46.63
2022-12-15T22:17:22.245Z,55.92
2022-12-15T22:19:48.623Z,54.80
2022-12-15T22:22:15.529Z,51.17
2022-12-15T22:24:42.567Z,48.38
2022-12-15T22:27:20.886Z,43.15
2022-12-15T22:29:49.069Z,51.95
2022-12-15T22:32:16.966Z,47.22
2022-12-15T22:34:44.536Z,55.15
2022-12-15T22:37:10.957Z,51.70
2022-12-15T22:39:37.325Z,56.28
2022-12-15T22:42:04.812Z,53.03
2022-12-15T22:44:34.236Z,49.67
2022-12-15T22:47:02.427Z,50.60
2022-12-15T22:49:36.402Z,53.67
2022-12-15T22:52:03.622Z,61.35
2022-12-15T22:54:31.913Z,58.92
2022-12-15T22:57:04.271Z,59.90
2022-12-15T22:59:37.817Z,56.60
2022-12-15T23:02:05.112Z,59.08
2022-12-15T23:04:32.234Z,56.67
2022-12-15T23:07:01.864Z,53.05
2022-12-15T23:09:28.584Z,58.97
2022-12-15T23:11:55.589Z,56.60
2022-12-15T23:14:44.887Z,60.45
2022-12-15T23:17:12.988Z,56.83
2022-12-15T23:19:43.914Z,54.13
2022-12-15T23:22:10.656Z,65.50
2022-12-15T23:24:37.087Z,51.75
2022-12-15T23:27:03.607Z,50.08
2022-12-15T23:29:30.285Z,55.47
2022-12-15T23:31:57.151Z,54.42
2022-12-15T23:34:23.695Z,55.63
2022-12-15T23:36:50.285Z,48.30
2022-12-15T23:39:16.760Z,48.72
2022-12-15T23:41:43.113Z,48.88
2022-12-15T23:44:09.685Z,52.72
2022-12-15T23:46:36.165Z,48.72
2022-12-15T23:49:02.622Z,48.67
2022-12-15T23:51:29.056Z,48.90
2022-12-15T23:53:55.446Z,48.15
2022-12-15T23:56:27.125Z,49.88
2022-12-15T23:58:56.578Z,43.30
